AAO weather

Colonel James Jabara Airport
Wichita, Kansas, United States

Public forecast

Using degrees Fahrenheit for public forecast. Weather courtesy of forecast.io.

METAR (pilot weather report)

Retrieved 2019/07/15 16:54 UTC (20 minutes ago):

KAAO 151654Z AUTO 07009KT 10SM FEW035 29/19 A2997 RMK AO2 SLP134 T02890189

TAF (pilot weather forecast)

Forecast is more than 6 hours old.

Closest forecast is Mc Connell Air Force Base, 7.9 nm (14.6 km) SSW. Retrieved 2019/07/15 10:09 UTC (7 hours ago):

TAF KIAB 151000Z 1510/1616 VRB06KT 9999 SKC QNH2997INS BECMG 1517/1518 04012KT 9999 SCT030 QNH2987INS BECMG 1523/1524 VRB06KT 9999 SKC QNH2989INS TX32/1520Z TN20/1511Z